Time;durP1;ratioP1;P1;durP2;ratioP2;P2;SDS_P1;SDS_P2;PMS_P1;PMS_P2;Temp;Humidity;BMP_temperature;BMP_pressure;BME280_temperature;BME280_humidity;BME280_pressure;Samples;Min_cycle;Max_cycle;Signal;HPM_P1;HPM_P2
2022/09/08 00:02:11;;;;;;;;;;;;;;;17.55;89.94;99881.88;5030917;28;1882;-83
2022/09/08 00:04:36;;;;;;;;;;;;;;;17.49;90.22;99878.50;5018128;28;1148;-83
2022/09/08 00:07:02;;;;;;;;;;;;;;;17.52;90.33;99885.34;5014474;28;1067;-84
2022/09/08 00:09:30;;;;;;;;;;;;;;;17.60;90.77;99888.00;5014840;28;981;-84
2022/09/08 00:11:56;;;;;;;;;;;;;;;17.63;89.45;99878.22;5013727;28;1343;-83
2022/09/08 00:14:21;;;;;;;;;;;;;;;17.59;88.98;99871.75;5014685;28;823;-83
2022/09/08 00:16:46;;;;;;;;;;;;;;;17.53;88.74;99870.31;5013256;28;1354;-83
2022/09/08 00:19:11;;;;;;;;;;;;;;;17.46;89.39;99870.06;5014711;28;898;-83
2022/09/08 00:21:37;;;;;;;;;;;;;;;17.42;90.12;99864.44;5013216;28;1972;-83
2022/09/08 00:24:02;;;;;;;;;;;;;;;17.39;89.63;99859.56;5013087;28;1232;-84
2022/09/08 00:26:27;;;;;;;;;;;;;;;17.39;89.21;99851.28;5014857;28;1055;-84
2022/09/08 00:28:52;;;;;;;;;;;;;;;17.40;89.53;99862.00;5014972;28;1064;-83
2022/09/08 00:31:17;;;;;;;;;;;;;;;17.33;88.79;99867.28;5014527;28;1307;-83
2022/09/08 00:33:42;;;;;;;;;;;;;;;17.24;89.29;99866.56;5014288;28;1001;-83
2022/09/08 00:36:11;;;;;;;;;;;;;;;17.19;89.15;99861.22;5013048;28;1233;-83
2022/09/08 00:38:36;;;;;;;;;;;;;;;17.19;89.27;99861.22;5013401;28;1191;-83
2022/09/08 00:41:02;;;;;;;;;;;;;;;16.97;88.34;99862.41;5013024;28;1299;-83
2022/09/08 00:43:30;;;;;;;;;;;;;;;17.02;88.67;99847.56;5016406;28;1870;-83
2022/09/08 00:45:55;;;;;;;;;;;;;;;17.01;87.75;99857.03;5016831;28;1242;-83
2022/09/08 00:48:21;;;;;;;;;;;;;;;17.00;87.96;99845.16;5016993;28;1228;-83
2022/09/08 00:50:47;;;;;;;;;;;;;;;17.00;88.17;99853.47;5016472;28;1307;-83
2022/09/08 00:53:14;;;;;;;;;;;;;;;16.99;87.91;99856.56;5017222;28;1469;-83
2022/09/08 00:55:39;;;;;;;;;;;;;;;16.97;88.00;99853.31;5018321;28;871;-83
2022/09/08 00:58:05;;;;;;;;;;;;;;;16.95;88.29;99850.88;5017996;28;1029;-83
2022/09/08 01:00:31;;;;;;;;;;;;;;;16.97;88.04;99847.78;5016556;28;1287;-84
2022/09/08 01:02:57;;;;;;;;;;;;;;;16.95;88.09;99842.59;5017759;28;1948;-83
2022/09/08 01:05:25;;;;;;;;;;;;;;;16.94;88.44;99843.72;5017917;28;847;-83
2022/09/08 01:13:56;;;;;;;;;;;;;;;16.75;87.70;99823.28;5018197;28;621;-83
2022/09/08 01:16:21;;;;;;;;;;;;;;;16.70;87.04;99815.97;5016205;28;1174;-83
2022/09/08 01:18:47;;;;;;;;;;;;;;;16.70;87.77;99815.16;5017769;28;1013;-83
2022/09/08 01:21:23;;;;;;;;;;;;;;;16.68;87.15;99811.94;5017467;28;1229;-84
2022/09/08 01:24:07;;;;;;;;;;;;;;;16.68;87.67;99811.94;5017418;28;870;-83
2022/09/08 01:26:35;;;;;;;;;;;;;;;16.65;87.19;99802.38;5016245;28;1250;-83
2022/09/08 01:29:02;;;;;;;;;;;;;;;16.62;87.51;99797.53;5016542;28;1260;-83
2022/09/08 01:31:30;;;;;;;;;;;;;;;16.57;86.90;99794.94;5016055;28;1291;-83
2022/09/08 01:33:57;;;;;;;;;;;;;;;16.52;86.89;99792.38;5016408;28;1340;-83
2022/09/08 01:36:23;;;;;;;;;;;;;;;16.46;87.52;99789.00;5017338;28;997;-83
2022/09/08 01:38:48;;;;;;;;;;;;;;;16.45;87.72;99797.63;5016320;28;1144;-83
2022/09/08 01:41:15;;;;;;;;;;;;;;;16.45;88.31;99805.91;5017318;28;1283;-83
2022/09/08 01:43:41;;;;;;;;;;;;;;;16.42;89.06;99804.63;5017321;28;1955;-83
2022/09/08 01:46:06;;;;;;;;;;;;;;;16.40;88.93;99795.06;5015859;28;1309;-84
2022/09/08 01:48:31;;;;;;;;;;;;;;;16.39;88.28;99802.56;5015806;28;1060;-83
2022/09/08 01:51:01;;;;;;;;;;;;;;;16.44;88.42;99802.34;5015776;28;1232;-84
2022/09/08 01:53:26;;;;;;;;;;;;;;;16.43;87.75;99797.16;5015313;28;1426;-83
2022/09/08 01:55:52;;;;;;;;;;;;;;;16.38;87.75;99802.88;5015877;28;1326;-83
2022/09/08 01:58:17;;;;;;;;;;;;;;;16.37;87.76;99802.06;5015939;28;1278;-83
2022/09/08 02:00:42;;;;;;;;;;;;;;;16.39;88.44;99801.75;5015802;28;1232;-83
2022/09/08 02:03:08;;;;;;;;;;;;;;;16.37;88.06;99802.06;5015868;28;1905;-83
2022/09/08 02:05:36;;;;;;;;;;;;;;;16.30;88.85;99803.75;5017170;28;858;-84
2022/09/08 02:08:01;;;;;;;;;;;;;;;16.30;88.80;99801.00;5014514;28;1294;-83
2022/09/08 02:10:26;;;;;;;;;;;;;;;16.32;87.71;99804.22;5017005;28;1291;-83
2022/09/08 02:12:51;;;;;;;;;;;;;;;16.35;88.28;99806.31;5015750;28;1236;-83
2022/09/08 02:15:17;;;;;;;;;;;;;;;16.34;88.17;99807.44;5017044;28;795;-83
2022/09/08 02:17:42;;;;;;;;;;;;;;;16.34;88.42;99807.44;5016716;28;846;-83
2022/09/08 02:20:07;;;;;;;;;;;;;;;16.36;88.71;99805.16;5015694;28;981;-84
2022/09/08 02:22:32;;;;;;;;;;;;;;;16.15;90.20;99799.63;5015298;28;1944;-83
2022/09/08 02:24:58;;;;;;;;;;;;;;;16.32;89.67;99793.19;5016848;28;783;-83
2022/09/08 02:27:23;;;;;;;;;;;;;;;16.36;90.17;99794.13;5015499;28;1244;-83
2022/09/08 02:29:49;;;;;;;;;;;;;;;16.23;88.77;99796.00;5015498;28;1061;-84
2022/09/08 02:32:14;;;;;;;;;;;;;;;16.11;89.88;99787.63;5015099;28;1292;-83
2022/09/08 02:34:39;;;;;;;;;;;;;;;16.12;89.78;99779.00;5016849;28;1009;-84
2022/09/08 02:37:04;;;;;;;;;;;;;;;16.17;89.43;99781.56;5015236;28;1311;-84
2022/09/08 02:39:29;;;;;;;;;;;;;;;16.17;89.13;99776.03;5015302;28;926;-83
2022/09/08 02:41:54;;;;;;;;;;;;;;;16.16;89.23;99776.41;5016351;28;1887;-84
2022/09/08 02:44:20;;;;;;;;;;;;;;;16.17;89.31;99775.22;5016619;28;834;-83
2022/09/08 02:46:45;;;;;;;;;;;;;;;16.15;90.01;99772.84;5014928;28;1045;-83
2022/09/08 02:49:10;;;;;;;;;;;;;;;16.14;90.16;99776.72;5015668;28;1184;-83
2022/09/08 02:51:36;;;;;;;;;;;;;;;16.15;90.09;99772.03;5020334;28;1332;-83
2022/09/08 02:54:01;;;;;;;;;;;;;;;16.06;89.87;99771.28;5020575;28;1236;-83
2022/09/08 02:56:26;;;;;;;;;;;;;;;16.12;90.38;99761.63;5024131;28;946;-83
2022/09/08 02:58:52;;;;;;;;;;;;;;;16.12;90.53;99762.44;5023169;28;1259;-83
2022/09/08 03:01:17;;;;;;;;;;;;;;;16.12;90.23;99762.44;5018193;28;1315;-83
2022/09/08 03:03:43;;;;;;;;;;;;;;;16.07;89.92;99748.84;5014258;28;1893;-83
2022/09/08 03:06:09;;;;;;;;;;;;;;;16.02;90.02;99748.22;5023599;28;1284;-83
2022/09/08 03:08:34;;;;;;;;;;;;;;;16.05;90.92;99751.13;5033923;28;1333;-83
2022/09/08 03:10:59;;;;;;;;;;;;;;;16.07;90.85;99739.75;5034228;28;1296;-83
2022/09/08 03:13:24;;;;;;;;;;;;;;;16.10;90.91;99737.13;5034112;28;1289;-83
2022/09/08 03:15:50;;;;;;;;;;;;;;;15.96;91.89;99741.28;5033565;28;1207;-83
2022/09/08 03:18:15;;;;;;;;;;;;;;;16.04;91.09;99740.41;5033769;28;1035;-83
2022/09/08 03:20:41;;;;;;;;;;;;;;;16.04;90.81;99732.13;5035362;28;1294;-83
2022/09/08 03:23:07;;;;;;;;;;;;;;;16.00;90.73;99723.72;5033296;28;1898;-83
2022/09/08 03:25:36;;;;;;;;;;;;;;;15.98;90.77;99728.78;5033576;28;1254;-83
2022/09/08 03:28:02;;;;;;;;;;;;;;;15.98;91.34;99728.78;5034947;28;814;-83
2022/09/08 03:30:27;;;;;;;;;;;;;;;16.01;91.21;99713.47;5035153;28;1137;-83
2022/09/08 03:32:52;;;;;;;;;;;;;;;15.99;91.20;99711.03;5035232;28;811;-83
2022/09/08 03:35:17;;;;;;;;;;;;;;;15.98;91.10;99703.94;5035056;28;1017;-84
2022/09/08 03:37:42;;;;;;;;;;;;;;;15.94;91.24;99700.22;5033465;28;1239;-83
2022/09/08 03:40:15;;;;;;;;;;;;;;;15.86;91.88;99696.38;5033669;28;1179;-83
2022/09/08 03:42:41;;;;;;;;;;;;;;;15.91;91.84;99703.63;5033232;28;1965;-83
2022/09/08 03:45:11;;;;;;;;;;;;;;;15.91;92.08;99700.88;5033576;28;1167;-84
2022/09/08 03:47:36;;;;;;;;;;;;;;;15.92;92.82;99688.69;5034647;28;1012;-83
2022/09/08 03:50:02;;;;;;;;;;;;;;;15.96;92.51;99686.09;5033473;28;1313;-83
2022/09/08 03:52:27;;;;;;;;;;;;;;;15.91;92.42;99676.03;5038620;28;1277;-86
2022/09/08 03:54:52;;;;;;;;;;;;;;;15.86;92.91;99679.00;5037645;28;1060;-84
2022/09/08 03:57:22;;;;;;;;;;;;;;;15.88;92.57;99673.97;5039357;28;1063;-86
2022/09/08 03:59:51;;;;;;;;;;;;;;;15.91;92.24;99684.31;5038433;28;1203;-85
2022/09/08 04:02:16;;;;;;;;;;;;;;;15.89;92.24;99670.88;5038021;28;1914;-86
2022/09/08 04:04:41;;;;;;;;;;;;;;;15.91;92.54;99678.00;5037955;28;1341;-84
2022/09/08 04:07:07;;;;;;;;;;;;;;;15.92;92.25;99674.91;5038282;28;1206;-84
2022/09/08 04:09:32;;;;;;;;;;;;;;;15.92;92.66;99669.38;5038174;28;1207;-86
2022/09/08 04:11:58;;;;;;;;;;;;;;;15.91;92.87;99675.25;5040555;28;1296;-86
2022/09/08 04:14:23;;;;;;;;;;;;;;;15.89;92.92;99670.06;5037764;28;1353;-85
2022/09/08 04:16:48;;;;;;;;;;;;;;;15.92;92.87;99668.56;5039356;28;993;-86
2022/09/08 04:19:13;;;;;;;;;;;;;;;15.89;93.06;99661.78;5041431;28;977;-85
2022/09/08 04:21:39;;;;;;;;;;;;;;;15.87;93.10;99667.63;5037532;28;1941;-87
2022/09/08 04:24:04;;;;;;;;;;;;;;;15.86;93.27;99667.97;5037532;28;1268;-86
2022/09/08 04:26:29;;;;;;;;;;;;;;;15.86;93.58;99676.25;5038464;28;1040;-86
2022/09/08 04:28:54;;;;;;;;;;;;;;;15.89;93.32;99672.81;5036466;28;1298;-86
2022/09/08 04:31:20;;;;;;;;;;;;;;;15.92;93.89;99677.66;5036544;28;1290;-86
2022/09/08 04:33:45;;;;;;;;;;;;;;;15.93;93.42;99668.22;5038913;28;843;-86
2022/09/08 04:36:12;;;;;;;;;;;;;;;15.96;93.95;99662.06;5037744;28;1093;-86
2022/09/08 04:38:37;;;;;;;;;;;;;;;15.97;94.33;99671.94;5037509;28;1211;-86
2022/09/08 04:41:03;;;;;;;;;;;;;;;15.98;94.32;99676.34;5039262;28;1284;-85
2022/09/08 04:43:29;;;;;;;;;;;;;;;15.97;94.40;99680.22;5036602;28;1956;-86
2022/09/08 04:45:54;;;;;;;;;;;;;;;15.97;94.73;99671.16;5037740;28;1236;-86
2022/09/08 04:48:20;;;;;;;;;;;;;;;15.92;94.93;99685.13;5035937;28;1001;-86
2022/09/08 04:50:51;;;;;;;;;;;;;;;15.95;95.40;99685.28;5037633;28;1280;-86
2022/09/08 04:53:16;;;;;;;;;;;;;;;15.95;95.58;99689.97;5036738;28;1186;-86
2022/09/08 04:55:42;;;;;;;;;;;;;;;15.95;95.63;99689.97;5037377;28;1227;-85
2022/09/08 04:58:07;;;;;;;;;;;;;;;15.94;95.47;99694.69;5040088;28;862;-86
2022/09/08 05:00:33;;;;;;;;;;;;;;;15.92;95.69;99696.97;5040316;28;1288;-88
2022/09/08 05:02:58;;;;;;;;;;;;;;;15.92;95.78;99698.94;5043222;28;1890;-87
2022/09/08 05:05:23;;;;;;;;;;;;;;;15.94;96.37;99705.72;5042254;28;926;-87
2022/09/08 05:07:49;;;;;;;;;;;;;;;15.88;96.82;99693.28;5043525;28;1032;-87
2022/09/08 05:10:14;;;;;;;;;;;;;;;15.87;97.69;99702.69;5041909;28;1179;-87
2022/09/08 05:12:39;;;;;;;;;;;;;;;15.87;98.21;99703.50;5041160;28;1197;-86
2022/09/08 05:15:04;;;;;;;;;;;;;;;15.80;98.49;99703.25;5040649;28;824;-88
2022/09/08 05:17:30;;;;;;;;;;;;;;;15.78;98.88;99697.25;5041879;28;1184;-87
2022/09/08 05:19:55;;;;;;;;;;;;;;;15.80;99.08;99694.16;5042899;28;1410;-88
2022/09/08 05:22:20;;;;;;;;;;;;;;;15.80;98.57;99689.44;5047191;28;1901;-86
2022/09/08 05:24:45;;;;;;;;;;;;;;;15.81;98.56;99693.00;5039620;28;815;-86
2022/09/08 05:27:10;;;;;;;;;;;;;;;15.84;98.34;99697.84;5040173;28;1156;-86
2022/09/08 05:29:35;;;;;;;;;;;;;;;15.84;98.61;99700.59;5039839;28;807;-86
2022/09/08 05:32:00;;;;;;;;;;;;;;;15.85;98.34;99702.22;5039866;28;1244;-87
2022/09/08 05:34:25;;;;;;;;;;;;;;;15.85;98.77;99702.22;5038976;28;1182;-86
2022/09/08 05:36:51;;;;;;;;;;;;;;;15.85;98.63;99693.94;5039955;28;730;-86
2022/09/08 05:39:16;;;;;;;;;;;;;;;15.80;98.47;99694.97;5041144;28;815;-85
2022/09/08 05:41:41;;;;;;;;;;;;;;;15.80;98.76;99691.41;5038989;28;1889;-86
2022/09/08 05:44:08;;;;;;;;;;;;;;;15.80;98.58;99700.47;5038569;28;898;-85
2022/09/08 05:46:33;;;;;;;;;;;;;;;15.76;98.92;99702.28;5037491;28;1262;-85
2022/09/08 05:48:59;;;;;;;;;;;;;;;15.76;99.63;99704.22;5035795;28;1089;-85
2022/09/08 05:51:24;;;;;;;;;;;;;;;15.77;99.07;99703.91;5037700;28;1227;-87
2022/09/08 05:53:50;;;;;;;;;;;;;;;15.75;99.56;99706.19;5039584;28;1144;-87
2022/09/08 05:56:18;;;;;;;;;;;;;;;15.79;99.80;99709.91;5038846;28;1220;-86
2022/09/08 05:58:48;;;;;;;;;;;;;;;15.81;100.00;99715.91;5038218;28;1259;-85
2022/09/08 06:01:13;;;;;;;;;;;;;;;15.91;100.00;99713.91;5034772;28;1236;-86
2022/09/08 06:03:38;;;;;;;;;;;;;;;15.93;99.59;99709.63;5036382;28;1902;-85
2022/09/08 06:06:05;;;;;;;;;;;;;;;15.97;99.99;99718.06;5036038;28;1067;-85
2022/09/08 06:08:31;;;;;;;;;;;;;;;15.99;99.75;99716.56;5036312;28;799;-85
2022/09/08 06:10:56;;;;;;;;;;;;;;;16.01;100.00;99711.53;5036015;28;1205;-85
2022/09/08 06:13:22;;;;;;;;;;;;;;;16.04;100.00;99707.28;5036405;28;909;-85
2022/09/08 06:15:48;;;;;;;;;;;;;;;16.09;100.00;99707.91;5036033;28;972;-86
2022/09/08 06:18:13;;;;;;;;;;;;;;;16.13;100.00;99699.75;5035071;28;1342;-86
2022/09/08 06:20:38;;;;;;;;;;;;;;;16.20;100.00;99691.75;5035425;28;1212;-86
2022/09/08 06:23:04;;;;;;;;;;;;;;;16.26;100.00;99693.94;5036034;28;1910;-87
2022/09/08 06:25:29;;;;;;;;;;;;;;;16.29;100.00;99686.94;5034727;28;1266;-86
2022/09/08 06:28:03;;;;;;;;;;;;;;;16.31;100.00;99690.19;5034667;28;1342;-86
2022/09/08 06:30:29;;;;;;;;;;;;;;;16.32;100.00;99682.72;5034585;28;1276;-86
2022/09/08 06:32:54;;;;;;;;;;;;;;;16.34;100.00;99681.22;5034585;28;989;-86
2022/09/08 06:35:21;;;;;;;;;;;;;;;16.35;100.00;99690.31;5037408;28;1033;-86
2022/09/08 06:37:52;;;;;;;;;;;;;;;16.36;100.00;99689.16;5038555;28;1037;-87
2022/09/08 06:40:26;;;;;;;;;;;;;;;16.36;100.00;99689.97;5038991;28;1358;-85
2022/09/08 06:42:54;;;;;;;;;;;;;;;16.39;100.00;99696.78;5035954;28;1890;-86
2022/09/08 06:45:25;;;;;;;;;;;;;;;16.39;100.00;99686.53;5039512;28;1294;-87
2022/09/08 06:47:57;;;;;;;;;;;;;;;16.41;100.00;99698.06;5041158;28;803;-87
2022/09/08 06:50:23;;;;;;;;;;;;;;;16.42;100.00;99693.31;5037837;28;1234;-87
2022/09/08 06:52:50;;;;;;;;;;;;;;;16.42;100.00;99693.31;5035235;28;1276;-86
2022/09/08 06:55:16;;;;;;;;;;;;;;;16.42;100.00;99693.31;5036396;28;1149;-87
2022/09/08 06:58:06;;;;;;;;;;;;;;;16.44;100.00;99691.03;5037848;28;1354;-86
2022/09/08 07:00:51;;;;;;;;;;;;;;;16.46;100.00;99688.75;5037220;28;1350;-86
2022/09/08 07:03:31;;;;;;;;;;;;;;;16.46;100.00;99686.78;5039526;28;1981;-86
2022/09/08 07:05:59;;;;;;;;;;;;;;;16.45;100.00;99696.22;5040368;28;993;-86
2022/09/08 07:08:39;;;;;;;;;;;;;;;16.48;100.00;99697.50;5039206;28;1256;-86
2022/09/08 07:11:04;;;;;;;;;;;;;;;16.47;100.00;99693.94;5041778;28;1169;-87
2022/09/08 07:13:45;;;;;;;;;;;;;;;16.53;100.00;99695.34;5040989;28;1098;-88
2022/09/08 07:16:23;;;;;;;;;;;;;;;16.57;100.00;99695.47;5049229;28;1060;-86
2022/09/08 07:18:55;;;;;;;;;;;;;;;16.58;100.00;99697.09;5047642;28;1322;-86
2022/09/08 07:21:38;;;;;;;;;;;;;;;16.59;100.00;99690.41;5043707;28;1177;-86
2022/09/08 07:24:04;;;;;;;;;;;;;;;16.62;100.00;99698.03;5036056;28;1255;-86
2022/09/08 07:26:45;;;;;;;;;;;;;;;16.57;100.00;99701.00;5033679;28;1132;-86
2022/09/08 07:29:13;;;;;;;;;;;;;;;16.61;100.00;99702.75;5038410;28;890;-87
2022/09/08 07:31:41;;;;;;;;;;;;;;;16.63;100.00;99703.25;5037740;28;1340;-87
2022/09/08 07:34:11;;;;;;;;;;;;;;;16.66;100.00;99690.72;5038967;28;1091;-86
2022/09/08 07:36:44;;;;;;;;;;;;;;;16.69;100.00;99695.53;5036376;28;1022;-86
2022/09/08 07:39:12;;;;;;;;;;;;;;;16.71;100.00;99695.19;5034580;28;1355;-86
2022/09/08 07:41:44;;;;;;;;;;;;;;;16.74;100.00;99691.75;5035322;28;1906;-86
2022/09/08 07:44:14;;;;;;;;;;;;;;;16.76;100.00;99695.00;5036006;28;834;-86
2022/09/08 07:46:58;;;;;;;;;;;;;;;16.79;100.00;99695.09;5037352;28;894;-86
2022/09/08 07:49:44;;;;;;;;;;;;;;;16.84;100.00;99686.59;5036170;28;1266;-86
2022/09/08 07:52:09;;;;;;;;;;;;;;;16.89;100.00;99689.16;5035491;28;1382;-86
2022/09/08 07:55:02;;;;;;;;;;;;;;;16.93;100.00;99686.50;5036583;28;969;-86
2022/09/08 07:57:33;;;;;;;;;;;;;;;16.97;100.00;99698.50;5034927;28;1358;-86
2022/09/08 08:00:04;;;;;;;;;;;;;;;17.00;100.00;99689.53;5036086;28;1313;-86
2022/09/08 08:02:46;;;;;;;;;;;;;;;17.02;100.00;99695.50;5035618;28;1898;-86
2022/09/08 08:05:20;;;;;;;;;;;;;;;17.02;100.00;99704.59;5034379;28;1207;-86
2022/09/08 08:07:55;;;;;;;;;;;;;;;17.02;100.00;99701.84;5037000;28;1020;-86
2022/09/08 08:10:29;;;;;;;;;;;;;;;17.01;100.00;99693.91;5037070;28;1013;-86
2022/09/08 08:13:05;;;;;;;;;;;;;;;16.97;100.00;99692.97;5036536;28;1087;-86
2022/09/08 08:15:33;;;;;;;;;;;;;;;16.97;100.00;99707.59;5036871;28;1065;-86
2022/09/08 08:18:25;;;;;;;;;;;;;;;16.97;100.00;99710.34;5034895;28;1389;-86
2022/09/08 08:20:57;;;;;;;;;;;;;;;16.98;100.00;99700.91;5036159;28;1306;-86
2022/09/08 08:23:35;;;;;;;;;;;;;;;16.99;100.00;99708.06;5037083;28;1974;-87
2022/09/08 08:26:12;;;;;;;;;;;;;;;16.98;100.00;99711.16;5036586;28;993;-87
2022/09/08 08:28:42;;;;;;;;;;;;;;;16.94;100.00;99715.75;5035053;28;1357;-86
2022/09/08 08:31:08;;;;;;;;;;;;;;;16.91;100.00;99714.50;5032563;28;1298;-86
2022/09/08 08:33:36;;;;;;;;;;;;;;;16.89;100.00;99722.31;5034448;28;1268;-86
2022/09/08 08:36:04;;;;;;;;;;;;;;;16.85;100.00;99726.09;5036060;28;1069;-86
2022/09/08 08:38:31;;;;;;;;;;;;;;;16.84;100.00;99722.53;5035963;28;978;-86
2022/09/08 08:40:58;;;;;;;;;;;;;;;16.83;100.00;99726.47;5034781;28;1209;-87
2022/09/08 08:43:35;;;;;;;;;;;;;;;16.82;100.00;99730.38;5035452;28;1898;-87
2022/09/08 08:46:12;;;;;;;;;;;;;;;16.83;100.00;99731.19;5032385;28;1374;-86
2022/09/08 08:48:43;;;;;;;;;;;;;;;16.81;100.00;99725.16;5034348;28;1196;-87
2022/09/08 08:51:29;;;;;;;;;;;;;;;16.81;100.00;99727.94;5033986;28;1193;-86
2022/09/08 08:54:10;;;;;;;;;;;;;;;16.83;100.00;99722.88;5035040;28;1344;-87
2022/09/08 08:56:38;;;;;;;;;;;;;;;16.82;100.00;99724.84;5056254;28;823;-87
2022/09/08 08:59:06;;;;;;;;;;;;;;;16.78;100.00;99721.13;5054723;28;1313;-87
2022/09/08 09:01:38;;;;;;;;;;;;;;;16.78;100.00;99718.38;5055597;28;1236;-86
2022/09/08 09:04:22;;;;;;;;;;;;;;;16.79;100.00;99728.28;5059888;28;1032;-87
2022/09/08 09:07:07;;;;;;;;;;;;;;;16.79;100.00;99719.97;5048671;28;1425;-86
2022/09/08 09:09:35;;;;;;;;;;;;;;;16.80;100.00;99716.06;5033166;28;1200;-86
2022/09/08 09:12:11;;;;;;;;;;;;;;;16.79;100.00;99716.41;5036845;28;1326;-86
2022/09/08 09:14:36;;;;;;;;;;;;;;;16.80;100.00;99707.78;5037985;28;1132;-87
2022/09/08 09:17:10;;;;;;;;;;;;;;;16.82;100.00;99708.25;5057580;28;1182;-87
2022/09/08 09:19:53;;;;;;;;;;;;;;;16.82;100.00;99711.03;5049527;28;1295;-86
2022/09/08 09:22:28;;;;;;;;;;;;;;;16.82;100.00;99712.97;5036046;28;1894;-86
2022/09/08 09:25:12;;;;;;;;;;;;;;;16.82;100.00;99710.22;5054609;28;1369;-86
2022/09/08 09:27:42;;;;;;;;;;;;;;;16.80;100.00;99701.44;5023316;28;1390;-86
2022/09/08 09:30:24;;;;;;;;;;;;;;;16.81;100.00;99700.28;5058364;28;1310;-86
2022/09/08 09:33:11;;;;;;;;;;;;;;;16.58;100.00;99658.41;5060066;28;1272;-86
2022/09/08 09:35:54;;;;;;;;;;;;;;;16.84;100.00;99700.41;5058735;28;1326;-86
2022/09/08 09:38:38;;;;;;;;;;;;;;;16.86;100.00;99703.66;5059144;28;1167;-87
2022/09/08 09:41:25;;;;;;;;;;;;;;;16.86;100.00;99698.13;5054932;28;1323;-86
2022/09/08 09:44:10;;;;;;;;;;;;;;;16.91;100.00;99691.56;5055007;28;1898;-86
2022/09/08 09:46:55;;;;;;;;;;;;;;;16.95;100.00;99696.06;5055379;28;1186;-86
2022/09/08 09:49:22;;;;;;;;;;;;;;;16.97;100.00;99687.44;5056788;28;1083;-86
2022/09/08 09:51:57;;;;;;;;;;;;;;;16.97;100.00;99688.25;5055958;28;1283;-86
2022/09/08 09:54:30;;;;;;;;;;;;;;;17.00;100.00;99693.09;5055397;28;1183;-87
2022/09/08 09:57:07;;;;;;;;;;;;;;;17.02;100.00;99685.25;5057069;28;1334;-87
2022/09/08 09:59:51;;;;;;;;;;;;;;;17.03;100.00;99684.09;5057442;28;1315;-87
2022/09/08 10:02:35;;;;;;;;;;;;;;;17.06;100.00;99681.81;5057088;28;1956;-87
2022/09/08 10:05:12;;;;;;;;;;;;;;;17.06;100.00;99679.03;5044770;28;1383;-87
2022/09/08 10:07:40;;;;;;;;;;;;;;;17.02;100.00;99679.72;5038321;28;878;-86
2022/09/08 10:10:14;;;;;;;;;;;;;;;17.02;100.00;99678.91;5037183;28;1267;-86
2022/09/08 10:12:40;;;;;;;;;;;;;;;17.02;100.00;99676.13;5037621;28;1224;-87
2022/09/08 10:15:21;;;;;;;;;;;;;;;17.04;100.00;99673.84;5036804;28;1556;-86
2022/09/08 10:18:08;;;;;;;;;;;;;;;17.09;100.00;99670.06;5037135;28;1267;-87
2022/09/08 10:20:36;;;;;;;;;;;;;;;17.12;100.00;99666.59;5039025;28;1219;-86
2022/09/08 10:23:01;;;;;;;;;;;;;;;17.16;100.00;99667.53;5038339;28;1894;-86
2022/09/08 10:25:40;;;;;;;;;;;;;;;17.21;100.00;99667.28;5039443;28;1310;-86
2022/09/08 10:28:26;;;;;;;;;;;;;;;17.26;100.00;99658.78;5040001;28;953;-86
2022/09/08 10:31:03;;;;;;;;;;;;;;;17.29;100.00;99660.84;5039124;28;1264;-86
2022/09/08 10:33:39;;;;;;;;;;;;;;;17.33;100.00;99656.25;5040606;28;803;-86
2022/09/08 10:36:08;;;;;;;;;;;;;;;17.41;100.00;99660.84;5041143;28;885;-86
2022/09/08 10:38:37;;;;;;;;;;;;;;;17.43;100.00;99655.78;5039324;28;1174;-86
2022/09/08 10:41:21;;;;;;;;;;;;;;;17.44;100.00;99653.84;5040392;28;1272;-87
2022/09/08 10:44:08;;;;;;;;;;;;;;;17.44;100.00;99656.59;5038713;28;1890;-86
2022/09/08 10:46:49;;;;;;;;;;;;;;;17.36;100.00;99656.34;5039323;28;814;-86
2022/09/08 10:49:33;;;;;;;;;;;;;;;17.32;100.00;99660.16;5040139;28;1259;-86
2022/09/08 10:52:07;;;;;;;;;;;;;;;17.30;100.00;99659.69;5040778;28;1275;-86
2022/09/08 10:54:54;;;;;;;;;;;;;;;17.30;100.00;99656.94;5039404;28;1187;-86
2022/09/08 10:57:46;;;;;;;;;;;;;;;17.30;100.00;99663.28;5038352;28;1000;-86
2022/09/08 11:00:21;;;;;;;;;;;;;;;17.29;100.00;99666.38;5040222;28;1227;-86
2022/09/08 11:02:52;;;;;;;;;;;;;;;17.24;100.00;99664.66;5038012;28;2013;-86
2022/09/08 11:05:36;;;;;;;;;;;;;;;17.23;100.00;99668.56;5036032;28;1224;-86
2022/09/08 11:08:10;;;;;;;;;;;;;;;17.22;100.00;99672.50;5037521;28;981;-86
2022/09/08 11:10:52;;;;;;;;;;;;;;;17.20;100.00;99666.50;5038131;28;1382;-86
2022/09/08 11:13:41;;;;;;;;;;;;;;;17.22;100.00;99660.63;5042209;28;855;-86
2022/09/08 11:16:21;;;;;;;;;;;;;;;17.26;100.00;99659.59;5040665;28;1020;-86
2022/09/08 11:19:15;;;;;;;;;;;;;;;17.28;100.00;99659.22;5038578;28;1186;-86
2022/09/08 11:21:47;;;;;;;;;;;;;;;17.29;100.00;99656.13;5038404;28;1312;-86
2022/09/08 11:24:15;;;;;;;;;;;;;;;17.24;100.00;99661.91;5039713;28;1271;-87
2022/09/08 11:26:40;;;;;;;;;;;;;;;17.17;100.00;99666.38;5041078;28;819;-86
2022/09/08 11:29:12;;;;;;;;;;;;;;;17.12;100.00;99669.34;5040538;28;1276;-87
2022/09/08 11:31:57;;;;;;;;;;;;;;;17.11;100.00;99663.03;5039883;28;1305;-86
2022/09/08 11:34:42;;;;;;;;;;;;;;;17.11;100.00;99662.22;5039195;28;1203;-86
2022/09/08 11:37:26;;;;;;;;;;;;;;;17.13;100.00;99668.22;5041422;28;1079;-86
2022/09/08 11:40:01;;;;;;;;;;;;;;;17.19;100.00;99664.06;5039374;28;1365;-86
2022/09/08 11:42:32;;;;;;;;;;;;;;;17.30;100.00;99668.00;5039339;28;1875;-86
2022/09/08 11:45:06;;;;;;;;;;;;;;;17.32;100.00;99668.47;5041831;28;1081;-87
2022/09/08 11:47:44;;;;;;;;;;;;;;;17.27;100.00;99677.78;5040061;28;1255;-87
2022/09/08 11:50:23;;;;;;;;;;;;;;;17.28;100.00;99673.06;5041209;28;1195;-87
2022/09/08 11:53:07;;;;;;;;;;;;;;;17.29;100.00;99674.66;5041975;28;1186;-87
2022/09/08 11:55:51;;;;;;;;;;;;;;;17.29;100.00;99671.91;5044255;28;1081;-86
2022/09/08 11:58:26;;;;;;;;;;;;;;;17.24;100.00;99672.97;5049482;28;1345;-86
2022/09/08 12:00:57;;;;;;;;;;;;;;;17.19;100.00;99672.34;5045686;28;1327;-86
2022/09/08 12:03:31;;;;;;;;;;;;;;;17.14;100.00;99673.41;5046701;28;1945;-86
2022/09/08 12:06:05;;;;;;;;;;;;;;;17.12;100.00;99683.19;5046379;28;1033;-85
2022/09/08 12:08:50;;;;;;;;;;;;;;;17.10;100.00;99683.53;5041531;28;1286;-86
2022/09/08 12:11:24;;;;;;;;;;;;;;;17.09;100.00;99695.75;5036929;28;1323;-86
2022/09/08 12:13:57;;;;;;;;;;;;;;;17.06;100.00;99693.66;5035448;28;1017;-86
2022/09/08 12:16:29;;;;;;;;;;;;;;;17.11;100.00;99689.88;5035173;28;1239;-86
2022/09/08 12:19:00;;;;;;;;;;;;;;;17.13;100.00;99695.88;5033660;28;1220;-87
2022/09/08 12:21:40;;;;;;;;;;;;;;;17.32;100.00;99698.88;5034367;28;1213;-86
2022/09/08 12:24:24;;;;;;;;;;;;;;;17.48;100.00;99696.25;5034922;28;1965;-86
2022/09/08 12:27:04;;;;;;;;;;;;;;;17.57;100.00;99702.47;5033302;28;1176;-86
2022/09/08 12:29:38;;;;;;;;;;;;;;;17.63;100.00;99693.59;5033909;28;1016;-86
2022/09/08 12:32:03;;;;;;;;;;;;;;;17.56;100.00;99703.63;5034465;28;1196;-86
2022/09/08 12:34:29;;;;;;;;;;;;;;;17.35;100.00;99698.22;5033979;28;1108;-86
2022/09/08 12:37:06;;;;;;;;;;;;;;;17.33;100.00;99701.31;5032794;28;1278;-87
2022/09/08 12:39:34;;;;;;;;;;;;;;;17.31;100.00;99706.38;5040715;28;1064;-86
2022/09/08 12:42:06;;;;;;;;;;;;;;;17.34;100.00;99707.66;5039954;28;1894;-86
2022/09/08 12:44:40;;;;;;;;;;;;;;;17.45;100.00;99719.06;5040477;28;1024;-86
2022/09/08 12:47:19;;;;;;;;;;;;;;;17.58;100.00;99717.91;5036727;28;1258;-86
2022/09/08 12:49:55;;;;;;;;;;;;;;;17.82;100.00;99717.94;5036297;28;1227;-86
2022/09/08 12:52:28;;;;;;;;;;;;;;;18.01;100.00;99709.03;5037429;28;1237;-86
2022/09/08 12:54:59;;;;;;;;;;;;;;;18.15;100.00;99709.44;5037507;28;1055;-86
2022/09/08 12:57:34;;;;;;;;;;;;;;;18.25;99.46;99717.28;5035863;28;1297;-87
2022/09/08 13:00:07;;;;;;;;;;;;;;;18.15;96.58;99709.44;5038733;28;1036;-86
2022/09/08 13:02:51;;;;;;;;;;;;;;;18.25;96.47;99717.28;5037800;28;1981;-86
2022/09/08 13:05:34;;;;;;;;;;;;;;;18.17;95.22;99718.22;5037525;28;1275;-86
2022/09/08 13:08:17;;;;;;;;;;;;;;;18.05;96.77;99719.03;5037114;28;1179;-86
2022/09/08 13:10:46;;;;;;;;;;;;;;;17.93;96.88;99723.81;5037832;28;1331;-86
2022/09/08 13:13:34;;;;;;;;;;;;;;;17.95;95.15;99725.06;5035694;28;1361;-86
2022/09/08 13:16:08;;;;;;;;;;;;;;;18.15;96.83;99726.06;5036072;28;1223;-86
2022/09/08 13:18:43;;;;;;;;;;;;;;;18.26;96.15;99718.88;5038540;28;1391;-86